sensor_id;sensor_type;location;lat;lon;timestamp;temperature;humidity
24224;DHT22;12359;49.716;9.212;2023-06-22T00:01:56;20.80;68.80
24224;DHT22;12359;49.716;9.212;2023-06-22T00:04:21;20.80;72.00
24224;DHT22;12359;49.716;9.212;2023-06-22T00:06:47;20.90;69.50
24224;DHT22;12359;49.716;9.212;2023-06-22T00:09:13;20.90;68.50
24224;DHT22;12359;49.716;9.212;2023-06-22T00:11:38;20.80;65.00
24224;DHT22;12359;49.716;9.212;2023-06-22T00:14:04;20.90;60.30
24224;DHT22;12359;49.716;9.212;2023-06-22T00:16:32;20.90;58.10
24224;DHT22;12359;49.716;9.212;2023-06-22T00:18:58;21.00;55.40
24224;DHT22;12359;49.716;9.212;2023-06-22T00:21:28;21.00;53.70
24224;DHT22;12359;49.716;9.212;2023-06-22T00:23:54;21.10;52.20
24224;DHT22;12359;49.716;9.212;2023-06-22T00:26:21;21.10;51.10
24224;DHT22;12359;49.716;9.212;2023-06-22T00:28:48;21.10;50.20
24224;DHT22;12359;49.716;9.212;2023-06-22T00:31:14;21.00;49.30
24224;DHT22;12359;49.716;9.212;2023-06-22T00:33:39;20.90;49.40
24224;DHT22;12359;49.716;9.212;2023-06-22T00:36:05;20.80;51.20
24224;DHT22;12359;49.716;9.212;2023-06-22T00:38:33;20.80;53.30
24224;DHT22;12359;49.716;9.212;2023-06-22T00:40:59;20.70;54.90
24224;DHT22;12359;49.716;9.212;2023-06-22T00:43:24;20.70;56.90
24224;DHT22;12359;49.716;9.212;2023-06-22T00:45:50;20.70;57.80
24224;DHT22;12359;49.716;9.212;2023-06-22T00:48:16;20.70;59.30
24224;DHT22;12359;49.716;9.212;2023-06-22T00:50:42;20.70;57.70
24224;DHT22;12359;49.716;9.212;2023-06-22T00:53:09;20.70;56.40
24224;DHT22;12359;49.716;9.212;2023-06-22T00:55:43;20.70;57.00
24224;DHT22;12359;49.716;9.212;2023-06-22T00:58:09;20.80;56.80
24224;DHT22;12359;49.716;9.212;2023-06-22T01:00:37;20.70;55.90
24224;DHT22;12359;49.716;9.212;2023-06-22T01:03:03;20.70;55.60
24224;DHT22;12359;49.716;9.212;2023-06-22T01:05:31;20.70;57.40
24224;DHT22;12359;49.716;9.212;2023-06-22T01:16:34;20.60;63.10
24224;DHT22;12359;49.716;9.212;2023-06-22T01:21:37;20.70;61.10
24224;DHT22;12359;49.716;9.212;2023-06-22T01:26:54;20.80;57.50
24224;DHT22;12359;49.716;9.212;2023-06-22T01:29:24;20.80;56.50
24224;DHT22;12359;49.716;9.212;2023-06-22T01:31:52;20.90;53.60
24224;DHT22;12359;49.716;9.212;2023-06-22T01:34:19;21.00;49.90
24224;DHT22;12359;49.716;9.212;2023-06-22T01:36:47;21.10;49.10
24224;DHT22;12359;49.716;9.212;2023-06-22T01:39:13;21.20;47.00
24224;DHT22;12359;49.716;9.212;2023-06-22T01:41:40;21.20;41.70
24224;DHT22;12359;49.716;9.212;2023-06-22T01:44:08;21.30;43.20
24224;DHT22;12359;49.716;9.212;2023-06-22T01:46:35;21.30;36.70
24224;DHT22;12359;49.716;9.212;2023-06-22T01:49:02;21.30;34.10
24224;DHT22;12359;49.716;9.212;2023-06-22T01:51:29;21.40;37.90
24224;DHT22;12359;49.716;9.212;2023-06-22T01:53:55;21.30;45.10
24224;DHT22;12359;49.716;9.212;2023-06-22T01:56:21;21.10;49.40
24224;DHT22;12359;49.716;9.212;2023-06-22T01:58:57;21.00;53.00
24224;DHT22;12359;49.716;9.212;2023-06-22T02:01:27;21.00;49.40
24224;DHT22;12359;49.716;9.212;2023-06-22T02:04:36;21.00;53.00
24224;DHT22;12359;49.716;9.212;2023-06-22T02:06:58;20.80;62.20
24224;DHT22;12359;49.716;9.212;2023-06-22T02:09:25;20.70;61.90
24224;DHT22;12359;49.716;9.212;2023-06-22T02:11:54;20.70;59.20
24224;DHT22;12359;49.716;9.212;2023-06-22T02:14:23;20.80;56.90
24224;DHT22;12359;49.716;9.212;2023-06-22T02:16:51;20.80;63.80
24224;DHT22;12359;49.716;9.212;2023-06-22T02:19:16;20.80;62.10
24224;DHT22;12359;49.716;9.212;2023-06-22T02:21:44;20.80;64.40
24224;DHT22;12359;49.716;9.212;2023-06-22T02:24:10;20.90;63.40
24224;DHT22;12359;49.716;9.212;2023-06-22T02:26:36;20.90;67.70
24224;DHT22;12359;49.716;9.212;2023-06-22T02:29:03;20.80;67.60
24224;DHT22;12359;49.716;9.212;2023-06-22T02:31:29;20.80;70.60
24224;DHT22;12359;49.716;9.212;2023-06-22T02:33:59;20.80;74.00
24224;DHT22;12359;49.716;9.212;2023-06-22T02:36:25;20.80;75.40
24224;DHT22;12359;49.716;9.212;2023-06-22T02:38:53;20.70;75.30
24224;DHT22;12359;49.716;9.212;2023-06-22T02:41:19;20.70;73.60
24224;DHT22;12359;49.716;9.212;2023-06-22T02:43:45;20.60;76.90
24224;DHT22;12359;49.716;9.212;2023-06-22T02:46:12;20.60;79.30
24224;DHT22;12359;49.716;9.212;2023-06-22T02:48:39;20.60;80.00
24224;DHT22;12359;49.716;9.212;2023-06-22T02:51:05;20.60;79.70
24224;DHT22;12359;49.716;9.212;2023-06-22T02:53:31;20.60;79.10
24224;DHT22;12359;49.716;9.212;2023-06-22T02:55:57;20.60;77.60
24224;DHT22;12359;49.716;9.212;2023-06-22T02:58:23;20.60;77.80
24224;DHT22;12359;49.716;9.212;2023-06-22T03:00:50;20.50;79.30
24224;DHT22;12359;49.716;9.212;2023-06-22T03:03:21;20.50;83.30
24224;DHT22;12359;49.716;9.212;2023-06-22T03:05:46;20.40;83.20
24224;DHT22;12359;49.716;9.212;2023-06-22T03:08:12;20.50;86.20
24224;DHT22;12359;49.716;9.212;2023-06-22T03:10:38;20.40;85.70
24224;DHT22;12359;49.716;9.212;2023-06-22T03:13:04;20.50;86.70
24224;DHT22;12359;49.716;9.212;2023-06-22T03:15:29;20.40;87.10
24224;DHT22;12359;49.716;9.212;2023-06-22T03:17:56;20.40;89.30
24224;DHT22;12359;49.716;9.212;2023-06-22T03:20:22;20.40;88.00
24224;DHT22;12359;49.716;9.212;2023-06-22T03:22:48;20.40;89.20
24224;DHT22;12359;49.716;9.212;2023-06-22T03:25:14;20.50;89.70
24224;DHT22;12359;49.716;9.212;2023-06-22T03:27:43;20.50;90.20
24224;DHT22;12359;49.716;9.212;2023-06-22T03:30:12;20.50;88.50
24224;DHT22;12359;49.716;9.212;2023-06-22T03:32:38;20.50;87.80
24224;DHT22;12359;49.716;9.212;2023-06-22T03:35:04;20.50;88.30
24224;DHT22;12359;49.716;9.212;2023-06-22T03:37:31;20.40;86.30
24224;DHT22;12359;49.716;9.212;2023-06-22T03:39:57;20.50;87.40
24224;DHT22;12359;49.716;9.212;2023-06-22T03:42:22;20.50;87.40
24224;DHT22;12359;49.716;9.212;2023-06-22T03:44:48;20.50;85.60
24224;DHT22;12359;49.716;9.212;2023-06-22T03:47:14;20.50;85.60
24224;DHT22;12359;49.716;9.212;2023-06-22T03:49:40;20.40;86.40
24224;DHT22;12359;49.716;9.212;2023-06-22T03:52:05;20.40;85.70
24224;DHT22;12359;49.716;9.212;2023-06-22T03:54:31;20.40;87.40
24224;DHT22;12359;49.716;9.212;2023-06-22T03:56:57;20.40;87.10
24224;DHT22;12359;49.716;9.212;2023-06-22T03:59:24;20.40;85.90
24224;DHT22;12359;49.716;9.212;2023-06-22T04:01:50;20.40;86.80
24224;DHT22;12359;49.716;9.212;2023-06-22T04:04:19;20.40;86.60
24224;DHT22;12359;49.716;9.212;2023-06-22T04:06:44;20.50;87.50
24224;DHT22;12359;49.716;9.212;2023-06-22T04:09:10;20.50;86.20
24224;DHT22;12359;49.716;9.212;2023-06-22T04:11:36;20.50;85.20
24224;DHT22;12359;49.716;9.212;2023-06-22T04:14:02;20.50;82.30
24224;DHT22;12359;49.716;9.212;2023-06-22T04:16:28;20.50;82.00
24224;DHT22;12359;49.716;9.212;2023-06-22T04:18:53;20.40;80.80
24224;DHT22;12359;49.716;9.212;2023-06-22T04:21:19;20.30;83.10
24224;DHT22;12359;49.716;9.212;2023-06-22T04:23:46;20.30;84.80
24224;DHT22;12359;49.716;9.212;2023-06-22T04:26:12;20.30;84.40
24224;DHT22;12359;49.716;9.212;2023-06-22T04:28:39;20.20;83.90
24224;DHT22;12359;49.716;9.212;2023-06-22T04:31:05;20.20;86.70
24224;DHT22;12359;49.716;9.212;2023-06-22T04:33:31;20.20;87.20
24224;DHT22;12359;49.716;9.212;2023-06-22T04:35:57;20.30;85.40
24224;DHT22;12359;49.716;9.212;2023-06-22T04:38:23;20.30;86.50
24224;DHT22;12359;49.716;9.212;2023-06-22T04:40:50;20.40;87.80
24224;DHT22;12359;49.716;9.212;2023-06-22T04:43:16;20.40;86.40
24224;DHT22;12359;49.716;9.212;2023-06-22T04:45:41;20.40;81.50
24224;DHT22;12359;49.716;9.212;2023-06-22T04:48:07;20.40;84.10
24224;DHT22;12359;49.716;9.212;2023-06-22T04:50:36;20.30;85.70
24224;DHT22;12359;49.716;9.212;2023-06-22T04:53:04;20.40;88.90
24224;DHT22;12359;49.716;9.212;2023-06-22T04:55:32;20.50;86.80
24224;DHT22;12359;49.716;9.212;2023-06-22T04:57:57;20.50;85.00
24224;DHT22;12359;49.716;9.212;2023-06-22T05:00:31;20.60;83.80
24224;DHT22;12359;49.716;9.212;2023-06-22T05:02:57;20.60;82.80
24224;DHT22;12359;49.716;9.212;2023-06-22T05:05:24;20.70;81.90
24224;DHT22;12359;49.716;9.212;2023-06-22T05:07:51;20.80;78.00
24224;DHT22;12359;49.716;9.212;2023-06-22T05:10:19;20.90;76.80
24224;DHT22;12359;49.716;9.212;2023-06-22T05:12:46;20.90;74.20
24224;DHT22;12359;49.716;9.212;2023-06-22T05:15:12;20.90;75.90
24224;DHT22;12359;49.716;9.212;2023-06-22T05:17:38;21.10;71.60
24224;DHT22;12359;49.716;9.212;2023-06-22T05:20:12;21.20;65.10
24224;DHT22;12359;49.716;9.212;2023-06-22T05:22:39;21.20;64.30
24224;DHT22;12359;49.716;9.212;2023-06-22T05:25:09;21.30;56.20
24224;DHT22;12359;49.716;9.212;2023-06-22T05:27:35;21.40;59.50
24224;DHT22;12359;49.716;9.212;2023-06-22T05:30:10;21.50;57.20
24224;DHT22;12359;49.716;9.212;2023-06-22T05:32:37;21.70;41.60
24224;DHT22;12359;49.716;9.212;2023-06-22T05:35:03;21.90;43.80
24224;DHT22;12359;49.716;9.212;2023-06-22T05:37:30;22.00;34.10
24224;DHT22;12359;49.716;9.212;2023-06-22T05:39:56;22.10;35.30
24224;DHT22;12359;49.716;9.212;2023-06-22T05:42:22;22.30;29.90
24224;DHT22;12359;49.716;9.212;2023-06-22T05:44:48;22.40;20.00
24224;DHT22;12359;49.716;9.212;2023-06-22T05:47:14;22.60;19.30
24224;DHT22;12359;49.716;9.212;2023-06-22T05:49:39;22.70;8.90
24224;DHT22;12359;49.716;9.212;2023-06-22T05:52:05;22.90;1.00
24224;DHT22;12359;49.716;9.212;2023-06-22T05:54:32;23.00;1.00
24224;DHT22;12359;49.716;9.212;2023-06-22T05:56:58;23.00;1.00
24224;DHT22;12359;49.716;9.212;2023-06-22T05:59:23;23.20;1.00
24224;DHT22;12359;49.716;9.212;2023-06-22T06:01:49;23.30;1.00
24224;DHT22;12359;49.716;9.212;2023-06-22T06:04:18;23.60;1.00
24224;DHT22;12359;49.716;9.212;2023-06-22T06:06:44;23.70;1.00
24224;DHT22;12359;49.716;9.212;2023-06-22T06:09:10;23.80;1.00
24224;DHT22;12359;49.716;9.212;2023-06-22T06:11:37;23.90;1.00
24224;DHT22;12359;49.716;9.212;2023-06-22T06:14:03;23.90;1.00
24224;DHT22;12359;49.716;9.212;2023-06-22T06:16:28;24.10;1.00
24224;DHT22;12359;49.716;9.212;2023-06-22T06:18:54;24.30;1.00
24224;DHT22;12359;49.716;9.212;2023-06-22T06:21:21;24.60;1.00
24224;DHT22;12359;49.716;9.212;2023-06-22T06:23:48;24.90;99.90
24224;DHT22;12359;49.716;9.212;2023-06-22T06:26:13;25.20;99.90
24224;DHT22;12359;49.716;9.212;2023-06-22T06:28:42;25.40;99.90
24224;DHT22;12359;49.716;9.212;2023-06-22T06:31:08;25.80;21.80
24224;DHT22;12359;49.716;9.212;2023-06-22T06:33:35;25.90;99.90
24224;DHT22;12359;49.716;9.212;2023-06-22T06:36:00;26.00;99.90
24224;DHT22;12359;49.716;9.212;2023-06-22T06:38:29;26.10;1.00
24224;DHT22;12359;49.716;9.212;2023-06-22T06:40:55;26.40;59.90
24224;DHT22;12359;49.716;9.212;2023-06-22T06:43:21;26.40;1.00
24224;DHT22;12359;49.716;9.212;2023-06-22T06:45:46;27.00;1.00
24224;DHT22;12359;49.716;9.212;2023-06-22T06:48:12;27.10;99.90
24224;DHT22;12359;49.716;9.212;2023-06-22T06:50:38;27.20;99.90
24224;DHT22;12359;49.716;9.212;2023-06-22T06:53:03;27.30;99.90
24224;DHT22;12359;49.716;9.212;2023-06-22T06:55:31;27.40;99.90
24224;DHT22;12359;49.716;9.212;2023-06-22T06:57:58;27.80;1.00
24224;DHT22;12359;49.716;9.212;2023-06-22T07:00:25;27.80;99.90
24224;DHT22;12359;49.716;9.212;2023-06-22T07:02:51;28.00;1.00
24224;DHT22;12359;49.716;9.212;2023-06-22T07:05:17;28.40;99.90
24224;DHT22;12359;49.716;9.212;2023-06-22T07:07:43;28.80;1.00
24224;DHT22;12359;49.716;9.212;2023-06-22T07:10:09;29.10;99.90
24224;DHT22;12359;49.716;9.212;2023-06-22T07:12:34;29.00;1.00
24224;DHT22;12359;49.716;9.212;2023-06-22T07:15:11;28.90;1.00
24224;DHT22;12359;49.716;9.212;2023-06-22T07:17:38;28.50;1.00
24224;DHT22;12359;49.716;9.212;2023-06-22T07:20:08;28.50;1.00
24224;DHT22;12359;49.716;9.212;2023-06-22T07:22:38;28.60;1.00
24224;DHT22;12359;49.716;9.212;2023-06-22T07:25:04;28.70;1.00
24224;DHT22;12359;49.716;9.212;2023-06-22T07:27:38;28.90;1.00
24224;DHT22;12359;49.716;9.212;2023-06-22T07:30:08;28.60;1.00
24224;DHT22;12359;49.716;9.212;2023-06-22T07:32:34;28.20;1.00
24224;DHT22;12359;49.716;9.212;2023-06-22T07:35:00;28.70;1.00
24224;DHT22;12359;49.716;9.212;2023-06-22T07:37:30;28.50;1.00
24224;DHT22;12359;49.716;9.212;2023-06-22T07:39:57;28.70;1.00
24224;DHT22;12359;49.716;9.212;2023-06-22T07:42:25;28.90;1.00
24224;DHT22;12359;49.716;9.212;2023-06-22T07:44:51;29.10;99.90
24224;DHT22;12359;49.716;9.212;2023-06-22T07:47:17;29.20;99.90
24224;DHT22;12359;49.716;9.212;2023-06-22T07:49:48;29.60;99.90
24224;DHT22;12359;49.716;9.212;2023-06-22T07:52:13;29.60;99.90
24224;DHT22;12359;49.716;9.212;2023-06-22T07:54:39;29.80;99.90
24224;DHT22;12359;49.716;9.212;2023-06-22T07:57:05;30.10;99.90
24224;DHT22;12359;49.716;9.212;2023-06-22T07:59:31;30.30;72.80
24224;DHT22;12359;49.716;9.212;2023-06-22T08:01:56;30.80;28.80
24224;DHT22;12359;49.716;9.212;2023-06-22T08:04:22;30.70;1.00
24224;DHT22;12359;49.716;9.212;2023-06-22T08:06:48;30.10;1.00
24224;DHT22;12359;49.716;9.212;2023-06-22T08:09:14;29.50;1.00
24224;DHT22;12359;49.716;9.212;2023-06-22T08:11:40;29.80;21.00
24224;DHT22;12359;49.716;9.212;2023-06-22T08:14:06;30.00;1.00
24224;DHT22;12359;49.716;9.212;2023-06-22T08:16:31;30.10;1.00
24224;DHT22;12359;49.716;9.212;2023-06-22T08:18:57;30.40;1.00
24224;DHT22;12359;49.716;9.212;2023-06-22T08:21:23;30.60;1.00
24224;DHT22;12359;49.716;9.212;2023-06-22T08:23:49;30.70;1.00
24224;DHT22;12359;49.716;9.212;2023-06-22T08:26:14;30.70;99.90
24224;DHT22;12359;49.716;9.212;2023-06-22T08:28:40;30.70;99.90
24224;DHT22;12359;49.716;9.212;2023-06-22T08:31:06;30.80;99.90
24224;DHT22;12359;49.716;9.212;2023-06-22T08:33:32;30.30;99.90
24224;DHT22;12359;49.716;9.212;2023-06-22T08:35:58;30.50;99.90
24224;DHT22;12359;49.716;9.212;2023-06-22T08:38:25;30.40;99.90
24224;DHT22;12359;49.716;9.212;2023-06-22T08:40:50;30.70;99.90
24224;DHT22;12359;49.716;9.212;2023-06-22T08:43:16;30.40;99.90
24224;DHT22;12359;49.716;9.212;2023-06-22T08:45:42;30.10;99.90
24224;DHT22;12359;49.716;9.212;2023-06-22T08:48:07;30.10;99.90
24224;DHT22;12359;49.716;9.212;2023-06-22T08:50:33;30.20;99.90
24224;DHT22;12359;49.716;9.212;2023-06-22T08:52:59;30.40;99.90
24224;DHT22;12359;49.716;9.212;2023-06-22T08:55:24;30.10;99.90
24224;DHT22;12359;49.716;9.212;2023-06-22T08:57:50;30.30;99.90
24224;DHT22;12359;49.716;9.212;2023-06-22T09:00:17;30.20;99.90
24224;DHT22;12359;49.716;9.212;2023-06-22T09:02:45;30.80;99.90
24224;DHT22;12359;49.716;9.212;2023-06-22T09:05:10;30.90;99.90
24224;DHT22;12359;49.716;9.212;2023-06-22T09:07:36;31.20;99.90
24224;DHT22;12359;49.716;9.212;2023-06-22T09:10:02;31.70;99.90
24224;DHT22;12359;49.716;9.212;2023-06-22T09:12:30;31.60;99.90
24224;DHT22;12359;49.716;9.212;2023-06-22T09:14:56;32.00;99.90
24224;DHT22;12359;49.716;9.212;2023-06-22T09:17:22;32.50;99.90
24224;DHT22;12359;49.716;9.212;2023-06-22T09:19:48;32.40;99.90
24224;DHT22;12359;49.716;9.212;2023-06-22T09:22:14;32.50;99.90
24224;DHT22;12359;49.716;9.212;2023-06-22T09:24:40;32.00;99.90
24224;DHT22;12359;49.716;9.212;2023-06-22T09:27:06;32.00;99.90
24224;DHT22;12359;49.716;9.212;2023-06-22T09:29:31;31.70;99.90
24224;DHT22;12359;49.716;9.212;2023-06-22T09:31:59;31.60;99.90
24224;DHT22;12359;49.716;9.212;2023-06-22T09:34:25;31.90;99.90
24224;DHT22;12359;49.716;9.212;2023-06-22T09:36:51;32.10;99.90
24224;DHT22;12359;49.716;9.212;2023-06-22T09:39:18;32.40;99.90
24224;DHT22;12359;49.716;9.212;2023-06-22T09:41:43;32.30;72.50
24224;DHT22;12359;49.716;9.212;2023-06-22T09:44:09;32.40;73.50
24224;DHT22;12359;49.716;9.212;2023-06-22T09:46:35;32.80;55.00
24224;DHT22;12359;49.716;9.212;2023-06-22T09:49:00;32.70;36.70
24224;DHT22;12359;49.716;9.212;2023-06-22T09:51:26;32.70;1.00
24224;DHT22;12359;49.716;9.212;2023-06-22T09:53:52;32.70;1.00
24224;DHT22;12359;49.716;9.212;2023-06-22T09:56:21;32.90;1.00
24224;DHT22;12359;49.716;9.212;2023-06-22T09:58:48;32.80;1.00
24224;DHT22;12359;49.716;9.212;2023-06-22T10:01:15;32.70;1.00
24224;DHT22;12359;49.716;9.212;2023-06-22T10:03:41;32.50;1.00
24224;DHT22;12359;49.716;9.212;2023-06-22T10:06:07;32.50;1.00
24224;DHT22;12359;49.716;9.212;2023-06-22T10:08:34;32.30;1.00
24224;DHT22;12359;49.716;9.212;2023-06-22T10:11:00;32.30;1.00
24224;DHT22;12359;49.716;9.212;2023-06-22T10:13:25;32.30;1.00
24224;DHT22;12359;49.716;9.212;2023-06-22T10:15:51;32.30;1.00
24224;DHT22;12359;49.716;9.212;2023-06-22T10:18:20;32.80;1.00
24224;DHT22;12359;49.716;9.212;2023-06-22T10:20:50;33.30;1.00
24224;DHT22;12359;49.716;9.212;2023-06-22T10:23:19;33.60;1.00
24224;DHT22;12359;49.716;9.212;2023-06-22T10:25:45;33.90;1.00
24224;DHT22;12359;49.716;9.212;2023-06-22T10:28:11;34.10;1.00
24224;DHT22;12359;49.716;9.212;2023-06-22T10:30:41;34.30;1.00
24224;DHT22;12359;49.716;9.212;2023-06-22T10:33:10;34.00;1.00
24224;DHT22;12359;49.716;9.212;2023-06-22T10:35:36;33.70;1.00
24224;DHT22;12359;49.716;9.212;2023-06-22T10:38:05;33.70;1.00
24224;DHT22;12359;49.716;9.212;2023-06-22T10:40:31;33.90;1.00
24224;DHT22;12359;49.716;9.212;2023-06-22T10:42:57;33.20;1.00
24224;DHT22;12359;49.716;9.212;2023-06-22T10:45:23;33.30;1.00
24224;DHT22;12359;49.716;9.212;2023-06-22T10:47:49;33.60;1.00
24224;DHT22;12359;49.716;9.212;2023-06-22T10:50:14;33.60;1.00
24224;DHT22;12359;49.716;9.212;2023-06-22T10:52:40;33.20;1.00
24224;DHT22;12359;49.716;9.212;2023-06-22T10:55:09;32.80;1.00
24224;DHT22;12359;49.716;9.212;2023-06-22T10:57:35;32.30;1.00
24224;DHT22;12359;49.716;9.212;2023-06-22T11:00:02;32.20;1.00
24224;DHT22;12359;49.716;9.212;2023-06-22T11:02:31;32.00;1.00
24224;DHT22;12359;49.716;9.212;2023-06-22T11:04:56;31.90;1.00
24224;DHT22;12359;49.716;9.212;2023-06-22T11:07:26;32.10;1.00
24224;DHT22;12359;49.716;9.212;2023-06-22T11:09:53;31.90;1.00
24224;DHT22;12359;49.716;9.212;2023-06-22T11:12:18;32.00;1.00
24224;DHT22;12359;49.716;9.212;2023-06-22T11:14:44;32.30;1.00
24224;DHT22;12359;49.716;9.212;2023-06-22T11:17:10;32.40;1.00
24224;DHT22;12359;49.716;9.212;2023-06-22T11:19:35;32.50;1.00
24224;DHT22;12359;49.716;9.212;2023-06-22T11:22:02;32.80;1.00
24224;DHT22;12359;49.716;9.212;2023-06-22T11:24:27;32.90;1.00
24224;DHT22;12359;49.716;9.212;2023-06-22T11:26:53;32.30;1.00
24224;DHT22;12359;49.716;9.212;2023-06-22T11:29:19;32.20;1.00
24224;DHT22;12359;49.716;9.212;2023-06-22T11:31:44;32.10;1.00
24224;DHT22;12359;49.716;9.212;2023-06-22T11:34:10;32.00;1.00
24224;DHT22;12359;49.716;9.212;2023-06-22T11:36:36;32.20;1.00
24224;DHT22;12359;49.716;9.212;2023-06-22T11:39:02;32.50;1.00
24224;DHT22;12359;49.716;9.212;2023-06-22T11:41:28;32.60;1.00
24224;DHT22;12359;49.716;9.212;2023-06-22T11:43:53;32.70;1.00
24224;DHT22;12359;49.716;9.212;2023-06-22T11:46:19;32.70;1.00
24224;DHT22;12359;49.716;9.212;2023-06-22T11:48:45;32.90;1.00
24224;DHT22;12359;49.716;9.212;2023-06-22T11:51:11;32.90;1.00
24224;DHT22;12359;49.716;9.212;2023-06-22T11:53:36;32.90;1.00
24224;DHT22;12359;49.716;9.212;2023-06-22T11:56:02;33.10;1.00
24224;DHT22;12359;49.716;9.212;2023-06-22T11:58:28;33.00;1.00
24224;DHT22;12359;49.716;9.212;2023-06-22T12:00:54;32.90;1.00
24224;DHT22;12359;49.716;9.212;2023-06-22T12:03:20;33.10;1.00
24224;DHT22;12359;49.716;9.212;2023-06-22T12:05:47;33.10;1.00
24224;DHT22;12359;49.716;9.212;2023-06-22T12:08:12;33.20;1.00
24224;DHT22;12359;49.716;9.212;2023-06-22T12:10:39;33.30;1.00
24224;DHT22;12359;49.716;9.212;2023-06-22T12:13:05;33.30;1.00
24224;DHT22;12359;49.716;9.212;2023-06-22T12:15:30;33.40;1.00
24224;DHT22;12359;49.716;9.212;2023-06-22T12:17:56;33.20;1.00
24224;DHT22;12359;49.716;9.212;2023-06-22T12:20:22;33.30;1.00
24224;DHT22;12359;49.716;9.212;2023-06-22T12:22:47;33.20;1.00
24224;DHT22;12359;49.716;9.212;2023-06-22T12:25:13;33.40;1.00
24224;DHT22;12359;49.716;9.212;2023-06-22T12:27:39;33.30;1.00
24224;DHT22;12359;49.716;9.212;2023-06-22T12:30:05;33.10;1.00
24224;DHT22;12359;49.716;9.212;2023-06-22T12:32:31;32.80;1.00
24224;DHT22;12359;49.716;9.212;2023-06-22T12:34:57;32.80;1.00
24224;DHT22;12359;49.716;9.212;2023-06-22T12:37:23;32.70;1.00
24224;DHT22;12359;49.716;9.212;2023-06-22T12:39:48;32.50;1.00
24224;DHT22;12359;49.716;9.212;2023-06-22T12:42:15;32.50;1.00
24224;DHT22;12359;49.716;9.212;2023-06-22T12:44:41;32.50;1.00
24224;DHT22;12359;49.716;9.212;2023-06-22T12:47:07;32.20;1.00
24224;DHT22;12359;49.716;9.212;2023-06-22T12:49:36;32.00;1.00
24224;DHT22;12359;49.716;9.212;2023-06-22T12:52:03;31.80;1.00
24224;DHT22;12359;49.716;9.212;2023-06-22T12:54:29;31.70;1.00
24224;DHT22;12359;49.716;9.212;2023-06-22T12:56:55;31.70;1.00
24224;DHT22;12359;49.716;9.212;2023-06-22T12:59:21;31.90;1.00
24224;DHT22;12359;49.716;9.212;2023-06-22T13:01:47;32.10;1.00
24224;DHT22;12359;49.716;9.212;2023-06-22T13:04:12;32.30;1.00
24224;DHT22;12359;49.716;9.212;2023-06-22T13:06:41;32.40;1.00
24224;DHT22;12359;49.716;9.212;2023-06-22T13:09:07;32.60;1.00
24224;DHT22;12359;49.716;9.212;2023-06-22T13:11:32;32.40;1.00
24224;DHT22;12359;49.716;9.212;2023-06-22T13:13:58;32.40;1.00
24224;DHT22;12359;49.716;9.212;2023-06-22T13:16:23;32.30;1.00
24224;DHT22;12359;49.716;9.212;2023-06-22T13:18:49;32.10;1.00
24224;DHT22;12359;49.716;9.212;2023-06-22T13:21:15;32.00;1.00
24224;DHT22;12359;49.716;9.212;2023-06-22T13:23:40;32.10;1.00
24224;DHT22;12359;49.716;9.212;2023-06-22T13:26:07;32.10;1.00
24224;DHT22;12359;49.716;9.212;2023-06-22T13:28:33;32.10;1.00
24224;DHT22;12359;49.716;9.212;2023-06-22T13:30:58;32.10;1.00
24224;DHT22;12359;49.716;9.212;2023-06-22T13:33:24;32.20;1.00
24224;DHT22;12359;49.716;9.212;2023-06-22T13:35:50;32.30;1.00
24224;DHT22;12359;49.716;9.212;2023-06-22T13:38:16;32.70;1.00
24224;DHT22;12359;49.716;9.212;2023-06-22T13:40:42;32.90;1.00
24224;DHT22;12359;49.716;9.212;2023-06-22T13:43:08;32.90;1.00
24224;DHT22;12359;49.716;9.212;2023-06-22T13:45:34;32.90;1.00
24224;DHT22;12359;49.716;9.212;2023-06-22T13:48:00;32.90;1.00
24224;DHT22;12359;49.716;9.212;2023-06-22T13:50:25;32.90;1.00
24224;DHT22;12359;49.716;9.212;2023-06-22T13:52:51;32.90;1.00
24224;DHT22;12359;49.716;9.212;2023-06-22T13:55:17;32.80;1.00
24224;DHT22;12359;49.716;9.212;2023-06-22T13:57:43;32.80;1.00
24224;DHT22;12359;49.716;9.212;2023-06-22T14:00:09;32.70;1.00
24224;DHT22;12359;49.716;9.212;2023-06-22T14:02:34;32.70;1.00
24224;DHT22;12359;49.716;9.212;2023-06-22T14:05:00;32.80;1.00
24224;DHT22;12359;49.716;9.212;2023-06-22T14:07:27;32.70;1.00
24224;DHT22;12359;49.716;9.212;2023-06-22T14:09:53;32.80;1.00
24224;DHT22;12359;49.716;9.212;2023-06-22T14:12:19;32.70;1.00
24224;DHT22;12359;49.716;9.212;2023-06-22T14:14:45;32.60;1.00
24224;DHT22;12359;49.716;9.212;2023-06-22T14:17:10;32.60;1.00
24224;DHT22;12359;49.716;9.212;2023-06-22T14:19:36;32.60;1.00
24224;DHT22;12359;49.716;9.212;2023-06-22T14:22:03;32.70;1.00
24224;DHT22;12359;49.716;9.212;2023-06-22T14:24:29;32.90;1.00
24224;DHT22;12359;49.716;9.212;2023-06-22T14:26:55;33.10;1.00
24224;DHT22;12359;49.716;9.212;2023-06-22T14:29:21;33.30;1.00
24224;DHT22;12359;49.716;9.212;2023-06-22T14:31:47;33.40;1.00
24224;DHT22;12359;49.716;9.212;2023-06-22T14:34:14;33.50;1.00
24224;DHT22;12359;49.716;9.212;2023-06-22T14:36:40;33.30;1.00
24224;DHT22;12359;49.716;9.212;2023-06-22T14:39:06;33.10;1.00
24224;DHT22;12359;49.716;9.212;2023-06-22T14:41:31;33.10;1.00
24224;DHT22;12359;49.716;9.212;2023-06-22T14:43:57;32.90;1.00
24224;DHT22;12359;49.716;9.212;2023-06-22T14:46:23;32.60;1.00
24224;DHT22;12359;49.716;9.212;2023-06-22T14:48:48;32.50;1.00
24224;DHT22;12359;49.716;9.212;2023-06-22T14:51:14;32.30;1.00
24224;DHT22;12359;49.716;9.212;2023-06-22T14:53:41;32.20;1.00
24224;DHT22;12359;49.716;9.212;2023-06-22T14:56:07;32.20;1.00
24224;DHT22;12359;49.716;9.212;2023-06-22T14:58:33;32.00;1.00
24224;DHT22;12359;49.716;9.212;2023-06-22T15:01:00;31.80;1.00
24224;DHT22;12359;49.716;9.212;2023-06-22T15:03:26;31.80;1.00
24224;DHT22;12359;49.716;9.212;2023-06-22T15:05:54;31.80;1.00
24224;DHT22;12359;49.716;9.212;2023-06-22T15:08:20;31.80;1.00
24224;DHT22;12359;49.716;9.212;2023-06-22T15:10:46;31.80;10.20
24224;DHT22;12359;49.716;9.212;2023-06-22T15:13:12;31.70;26.40
24224;DHT22;12359;49.716;9.212;2023-06-22T15:15:38;31.70;51.20
24224;DHT22;12359;49.716;9.212;2023-06-22T15:18:03;31.70;83.10
24224;DHT22;12359;49.716;9.212;2023-06-22T15:20:29;31.70;95.60
24224;DHT22;12359;49.716;9.212;2023-06-22T15:22:57;31.70;79.30
24224;DHT22;12359;49.716;9.212;2023-06-22T15:25:23;31.70;92.40
24224;DHT22;12359;49.716;9.212;2023-06-22T15:27:48;31.60;95.30
24224;DHT22;12359;49.716;9.212;2023-06-22T15:30:14;31.50;99.90
24224;DHT22;12359;49.716;9.212;2023-06-22T15:32:43;31.30;90.60
24224;DHT22;12359;49.716;9.212;2023-06-22T15:35:10;31.10;99.90
24224;DHT22;12359;49.716;9.212;2023-06-22T15:37:36;31.00;99.90
24224;DHT22;12359;49.716;9.212;2023-06-22T15:40:02;30.90;99.90
24224;DHT22;12359;49.716;9.212;2023-06-22T15:42:28;30.80;99.90
24224;DHT22;12359;49.716;9.212;2023-06-22T15:44:54;30.70;99.90
24224;DHT22;12359;49.716;9.212;2023-06-22T15:47:20;30.70;99.90